Time;durP1;ratioP1;P1;durP2;ratioP2;P2;SDS_P1;SDS_P2;PMS_P1;PMS_P2;Temp;Humidity;BMP_temperature;BMP_pressure;BME280_temperature;BME280_humidity;BME280_pressure;Samples;Min_cycle;Max_cycle;Signal;HPM_P1;HPM_P2
2022/12/28 00:01:26;;;;;;;16.07;11.60;;;5.40;99.90;;;;;;5045710;28;20464;-72
2022/12/28 00:03:53;;;;;;;20.83;11.60;;;5.40;99.90;;;;;;5035654;28;20402;-72
2022/12/28 00:06:21;;;;;;;15.70;12.00;;;5.40;99.90;;;;;;5034540;28;20912;-69
2022/12/28 00:08:47;;;;;;;22.03;12.00;;;5.50;99.90;;;;;;5035811;28;20405;-70
2022/12/28 00:11:18;;;;;;;22.57;13.30;;;5.40;99.90;;;;;;5035723;28;20484;-71
2022/12/28 00:13:44;;;;;;;18.80;12.53;;;5.40;99.90;;;;;;5035481;28;20893;-70
2022/12/28 00:16:17;;;;;;;22.97;12.40;;;5.40;99.90;;;;;;5033415;28;20440;-71
2022/12/28 00:18:43;;;;;;;18.97;11.37;;;5.50;99.90;;;;;;5054654;28;20224;-70
2022/12/28 00:21:09;;;;;;;18.87;12.40;;;5.40;99.90;;;;;;5055424;28;20957;-70
2022/12/28 00:23:34;;;;;;;14.63;11.23;;;5.50;99.90;;;;;;5035957;28;20441;-70
2022/12/28 00:26:08;;;;;;;16.50;13.07;;;5.50;99.90;;;;;;5034437;28;20232;-72
2022/12/28 00:28:33;;;;;;;18.97;11.47;;;5.50;99.90;;;;;;5035239;28;20178;-70
2022/12/28 00:30:59;;;;;;;17.53;10.77;;;5.50;99.90;;;;;;5035252;28;20946;-71
2022/12/28 00:33:25;;;;;;;12.87;10.83;;;5.50;99.90;;;;;;5035416;28;20408;-69
2022/12/28 00:35:55;;;;;;;18.00;11.60;;;5.50;99.90;;;;;;5033079;28;20243;-71
2022/12/28 00:38:21;;;;;;;16.40;13.07;;;5.50;99.90;;;;;;5035518;28;20255;-71
2022/12/28 00:40:46;;;;;;;17.37;11.33;;;5.40;99.90;;;;;;5034629;28;20497;-71
2022/12/28 00:43:12;;;;;;;17.17;11.60;;;5.50;99.90;;;;;;5034953;28;20275;-70
2022/12/28 00:45:38;;;;;;;15.13;10.77;;;5.50;99.90;;;;;;5033962;28;20678;-71
2022/12/28 00:48:04;;;;;;;17.37;12.10;;;5.40;99.90;;;;;;5041694;28;20165;-72
2022/12/28 00:50:30;;;;;;;21.03;11.57;;;5.40;99.90;;;;;;5054769;28;20167;-72
2022/12/28 00:52:55;;;;;;;19.33;12.97;;;5.40;99.90;;;;;;5054577;28;20402;-70
2022/12/28 00:55:21;;;;;;;13.00;10.03;;;5.40;99.90;;;;;;5034072;28;20188;-72
2022/12/28 00:57:47;;;;;;;11.87;10.57;;;5.40;99.90;;;;;;5044115;28;20172;-70
2022/12/28 01:00:13;;;;;;;14.50;10.93;;;5.50;99.90;;;;;;5039057;28;20400;-69
2022/12/28 01:02:39;;;;;;;19.60;9.73;;;5.50;99.90;;;;;;5042314;28;20264;-70
2022/12/28 01:05:05;;;;;;;13.67;9.07;;;5.50;99.90;;;;;;5038872;28;20948;-69
2022/12/28 01:07:31;;;;;;;17.23;10.30;;;5.50;99.90;;;;;;5041902;28;20171;-70
2022/12/28 01:09:57;;;;;;;13.53;8.37;;;5.50;99.90;;;;;;5034322;28;20795;-71
2022/12/28 01:12:23;;;;;;;10.00;7.83;;;5.50;99.90;;;;;;5052949;28;20664;-71
2022/12/28 01:14:48;;;;;;;15.67;9.40;;;5.50;99.90;;;;;;5033008;28;20613;-71
2022/12/28 01:17:14;;;;;;;12.13;8.20;;;5.50;99.90;;;;;;5034431;28;20172;-71
2022/12/28 01:19:40;;;;;;;13.77;9.17;;;5.60;99.90;;;;;;5034445;28;20697;-69
2022/12/28 01:22:05;;;;;;;16.00;7.13;;;5.60;99.90;;;;;;5034305;28;20176;-71
2022/12/28 01:24:31;;;;;;;16.23;8.40;;;5.50;99.90;;;;;;5051975;28;20195;-69
2022/12/28 01:26:57;;;;;;;17.53;8.83;;;5.60;99.90;;;;;;5053930;28;20233;-71
2022/12/28 01:29:22;;;;;;;10.23;7.57;;;5.50;99.90;;;;;;5053446;28;20626;-71
2022/12/28 01:31:48;;;;;;;11.50;8.53;;;5.50;99.90;;;;;;5034267;28;20252;-70
2022/12/28 01:34:14;;;;;;;9.17;6.93;;;5.60;99.90;;;;;;5033413;28;20244;-70
2022/12/28 01:36:39;;;;;;;12.17;7.70;;;5.60;99.90;;;;;;5033446;28;20173;-69
2022/12/28 01:39:05;;;;;;;20.27;7.57;;;5.60;99.90;;;;;;5033971;28;20168;-71
2022/12/28 01:41:35;;;;;;;10.70;7.10;;;5.50;99.90;;;;;;5032663;28;20180;-71
2022/12/28 01:44:00;;;;;;;8.73;6.40;;;5.60;99.90;;;;;;5033783;28;20505;-72
2022/12/28 01:46:35;;;;;;;14.57;5.57;;;5.60;99.90;;;;;;5033711;28;20512;-69
2022/12/28 01:49:06;;;;;;;10.30;6.30;;;5.60;99.90;;;;;;5053696;28;20208;-70
2022/12/28 01:51:51;;;;;;;8.90;7.70;;;5.60;99.90;;;;;;5053294;28;20474;-69
2022/12/28 01:54:19;;;;;;;11.97;6.90;;;5.60;99.90;;;;;;5052701;28;21087;-72
2022/12/28 01:56:46;;;;;;;12.93;6.07;;;5.70;99.90;;;;;;5053608;28;20390;-72
2022/12/28 01:59:12;;;;;;;6.57;5.90;;;5.70;99.90;;;;;;5050004;28;20468;-71
2022/12/28 02:01:38;;;;;;;6.97;4.87;;;5.70;99.90;;;;;;5033652;28;20504;-72
2022/12/28 02:04:04;;;;;;;14.20;6.10;;;5.70;99.90;;;;;;5033861;28;20193;-70
2022/12/28 02:06:30;;;;;;;5.33;4.83;;;5.60;99.90;;;;;;5032350;28;20569;-70
2022/12/28 02:09:09;;;;;;;11.90;5.53;;;5.60;99.90;;;;;;5036084;28;20430;-72
2022/12/28 02:11:36;;;;;;;8.17;4.53;;;5.60;99.90;;;;;;5032929;28;20598;-69
2022/12/28 02:14:03;;;;;;;5.23;3.93;;;5.50;99.90;;;;;;5046461;28;20448;-72
2022/12/28 02:16:29;;;;;;;5.47;4.97;;;5.50;99.90;;;;;;5032176;28;20435;-70
2022/12/28 02:18:55;;;;;;;10.03;4.57;;;5.50;99.90;;;;;;5038253;28;20993;-70
2022/12/28 02:21:35;;;;;;;8.97;4.90;;;5.50;99.90;;;;;;5044631;28;20180;-72
2022/12/28 02:24:31;;;;;;;11.70;6.03;;;5.40;99.90;;;;;;5043561;28;20436;-73
2022/12/28 02:27:20;;;;;;;7.90;4.47;;;5.40;99.90;;;;;;5053098;28;20455;-71
2022/12/28 02:30:09;;;;;;;4.53;4.10;;;5.40;99.90;;;;;;5051783;28;20459;-72
2022/12/28 02:33:04;;;;;;;4.17;3.77;;;5.30;99.90;;;;;;5053037;28;20762;-71
2022/12/28 02:35:43;;;;;;;6.07;3.87;;;5.30;99.90;;;;;;5046921;28;20484;-73
2022/12/28 02:38:20;;;;;;;4.20;3.70;;;5.30;99.90;;;;;;5039546;28;20902;-72
2022/12/28 02:40:52;;;;;;;4.90;3.40;;;5.30;99.90;;;;;;5052971;28;20460;-73
2022/12/28 02:43:18;;;;;;;8.97;4.50;;;5.20;99.90;;;;;;5051642;28;20976;-73
2022/12/28 02:51:38;;;;;;;5.97;4.30;;;5.10;99.90;;;;;;5053128;28;20758;-73
2022/12/28 02:56:06;;;;;;;8.30;3.63;;;5.10;99.90;;;;;;5052559;28;20799;-73
2022/12/28 02:57:29;;;;;;;8.93;4.50;;;5.10;99.90;;;;;;5032823;28;20775;-73
2022/12/28 03:00:33;;;;;;;13.13;3.40;;;5.10;99.90;;;;;;5031607;28;20411;-73
2022/12/28 03:03:14;;;;;;;5.83;4.57;;;5.00;99.90;;;;;;5030212;28;20438;-74
2022/12/28 03:09:02;;;;;;;5.93;4.57;;;5.00;99.90;;;;;;5040153;28;21058;-72
2022/12/28 03:11:47;;;;;;;8.40;4.40;;;5.00;99.90;;;;;;5042004;28;20446;-74
2022/12/28 03:14:22;;;;;;;4.80;4.40;;;5.00;99.90;;;;;;5054861;28;20815;-75
2022/12/28 03:31:07;;;;;;;4.53;4.10;;;4.90;99.90;;;;;;5036153;28;20433;-72
2022/12/28 03:33:40;;;;;;;4.23;3.93;;;4.80;99.90;;;;;;5035458;28;20930;-72
2022/12/28 03:36:36;;;;;;;5.67;4.30;;;4.80;99.90;;;;;;5034723;28;20873;-74
2022/12/28 03:39:33;;;;;;;6.80;3.90;;;4.80;99.90;;;;;;5035571;28;20492;-73
2022/12/28 03:45:01;;;;;;;7.10;6.27;;;4.80;99.90;;;;;;5049116;28;20965;-73
2022/12/28 03:47:28;;;;;;;6.70;4.13;;;4.70;99.90;;;;;;5035804;28;20430;-74
2022/12/28 03:49:54;;;;;;;5.73;5.10;;;4.80;99.90;;;;;;5039906;28;20452;-72
2022/12/28 03:52:20;;;;;;;6.60;4.10;;;4.80;99.90;;;;;;5035575;28;20430;-74
2022/12/28 03:54:46;;;;;;;5.50;3.73;;;4.80;99.90;;;;;;5037328;28;21045;-73
2022/12/28 03:57:12;;;;;;;4.93;4.53;;;4.80;99.90;;;;;;5035670;28;20768;-74
2022/12/28 03:59:37;;;;;;;5.47;4.97;;;4.80;99.90;;;;;;5034962;28;20184;-73
2022/12/28 04:02:03;;;;;;;6.43;4.70;;;4.80;99.90;;;;;;5038285;28;20176;-73
2022/12/28 04:04:29;;;;;;;7.93;4.47;;;4.80;99.90;;;;;;5033831;28;20278;-73
2022/12/28 04:06:54;;;;;;;9.30;5.43;;;4.80;99.90;;;;;;5035222;28;20204;-74
2022/12/28 04:09:21;;;;;;;8.67;5.00;;;4.70;99.90;;;;;;5038809;28;20222;-75
2022/12/28 04:11:46;;;;;;;8.00;5.13;;;4.70;99.90;;;;;;5033730;28;20176;-74
2022/12/28 04:14:12;;;;;;;5.13;4.73;;;4.70;99.90;;;;;;5048534;28;20456;-73
2022/12/28 04:16:38;;;;;;;5.23;4.80;;;4.80;99.90;;;;;;5035041;28;20630;-74
2022/12/28 04:19:03;;;;;;;6.33;4.53;;;4.70;99.90;;;;;;5034030;28;20205;-75
2022/12/28 04:21:29;;;;;;;4.70;4.30;;;4.80;99.90;;;;;;5033898;28;20187;-75
2022/12/28 04:23:55;;;;;;;5.27;4.87;;;4.80;99.90;;;;;;5049799;28;20199;-74
2022/12/28 04:26:21;;;;;;;6.00;5.00;;;4.70;99.90;;;;;;5039908;28;20195;-74
2022/12/28 04:28:46;;;;;;;5.43;4.93;;;4.80;99.90;;;;;;5055169;28;20177;-74
2022/12/28 04:31:13;;;;;;;6.17;5.57;;;4.80;99.90;;;;;;5044258;28;20262;-75
2022/12/28 04:33:39;;;;;;;5.67;5.17;;;4.80;99.90;;;;;;5035225;28;20533;-75
2022/12/28 04:36:06;;;;;;;4.40;4.00;;;4.80;99.90;;;;;;5034345;28;20399;-76
2022/12/28 04:38:32;;;;;;;4.97;4.47;;;4.70;99.90;;;;;;5054402;28;20425;-74
2022/12/28 04:40:58;;;;;;;13.70;4.87;;;4.70;99.90;;;;;;5055137;28;20420;-74
2022/12/28 04:43:24;;;;;;;4.57;4.17;;;4.70;99.90;;;;;;5044031;28;20416;-74
2022/12/28 04:46:00;;;;;;;6.07;5.30;;;4.80;99.90;;;;;;5034080;28;20251;-74
2022/12/28 04:48:26;;;;;;;5.43;4.30;;;4.80;99.90;;;;;;5035051;28;20245;-75
2022/12/28 04:50:53;;;;;;;7.43;3.67;;;4.80;99.90;;;;;;5034689;28;20447;-73
2022/12/28 04:53:19;;;;;;;8.00;4.20;;;4.80;99.90;;;;;;5034036;28;20267;-74
2022/12/28 04:55:45;;;;;;;6.23;5.30;;;4.90;99.90;;;;;;5052266;28;20575;-73
2022/12/28 04:58:10;;;;;;;4.03;3.70;;;4.90;99.90;;;;;;5053803;28;20265;-73
2022/12/28 05:00:36;;;;;;;4.77;4.10;;;4.80;99.90;;;;;;5054623;28;20489;-74
2022/12/28 05:03:02;;;;;;;8.33;4.90;;;4.90;99.90;;;;;;5054688;28;20178;-74
2022/12/28 05:05:28;;;;;;;6.93;5.13;;;4.90;99.90;;;;;;5052278;28;20226;-73
2022/12/28 05:07:54;;;;;;;4.97;4.07;;;4.90;99.90;;;;;;5053523;28;20167;-74
2022/12/28 05:10:20;;;;;;;4.23;3.93;;;4.90;99.90;;;;;;5054047;28;20399;-75
2022/12/28 05:12:46;;;;;;;4.63;4.20;;;5.00;99.90;;;;;;5034561;28;20417;-73
2022/12/28 05:15:12;;;;;;;4.23;3.87;;;5.00;99.90;;;;;;5032573;28;20195;-73
2022/12/28 05:17:38;;;;;;;4.17;3.87;;;5.00;99.90;;;;;;5034465;28;20403;-74
2022/12/28 05:20:04;;;;;;;6.20;3.40;;;5.00;99.90;;;;;;5044126;28;20428;-74
2022/12/28 05:22:30;;;;;;;4.80;3.87;;;5.00;99.90;;;;;;5053329;28;20174;-74
2022/12/28 05:24:56;;;;;;;8.53;4.00;;;5.00;99.90;;;;;;5048293;28;21080;-75
2022/12/28 05:27:22;;;;;;;6.10;4.23;;;4.90;99.90;;;;;;5037585;28;20426;-74
2022/12/28 05:29:47;;;;;;;6.07;4.90;;;5.00;99.90;;;;;;5044207;28;20171;-73
2022/12/28 05:32:13;;;;;;;4.13;3.83;;;5.00;99.90;;;;;;5040415;28;20664;-73
2022/12/28 05:34:39;;;;;;;4.93;3.93;;;5.00;99.90;;;;;;5052999;28;20190;-73
2022/12/28 05:37:05;;;;;;;5.80;4.37;;;5.00;99.90;;;;;;5045703;28;20172;-73
2022/12/28 05:39:30;;;;;;;4.27;3.50;;;5.00;99.90;;;;;;5034006;28;20559;-74
2022/12/28 05:41:59;;;;;;;4.57;4.00;;;5.10;99.90;;;;;;5033979;28;20278;-73
2022/12/28 05:44:26;;;;;;;3.93;3.67;;;5.10;99.90;;;;;;5033231;28;20215;-74
2022/12/28 05:46:52;;;;;;;5.70;4.27;;;5.10;99.90;;;;;;5053439;28;21006;-74
2022/12/28 05:49:17;;;;;;;3.97;3.10;;;5.10;99.90;;;;;;5044008;28;20423;-73
2022/12/28 05:51:43;;;;;;;8.60;3.50;;;5.00;99.90;;;;;;5032847;28;20408;-74
2022/12/28 05:54:09;;;;;;;3.67;3.43;;;5.00;99.90;;;;;;5033368;28;20658;-73
2022/12/28 05:56:35;;;;;;;3.90;3.60;;;5.00;99.90;;;;;;5033104;28;20168;-74
2022/12/28 05:59:03;;;;;;;3.60;2.93;;;5.10;99.90;;;;;;5033664;28;20171;-73
2022/12/28 06:01:31;;;;;;;3.70;3.50;;;5.10;99.90;;;;;;5034074;28;20416;-74
2022/12/28 06:04:03;;;;;;;4.00;3.70;;;5.10;99.90;;;;;;5033261;28;20498;-74
2022/12/28 06:06:30;;;;;;;3.60;3.30;;;5.20;99.90;;;;;;5033307;28;20947;-74
2022/12/28 06:08:55;;;;;;;3.97;3.67;;;5.20;99.90;;;;;;5032524;28;20498;-74
2022/12/28 06:11:24;;;;;;;4.13;3.70;;;5.20;99.90;;;;;;5033349;28;20991;-74
2022/12/28 06:13:50;;;;;;;4.30;3.93;;;5.20;99.90;;;;;;5033503;28;20164;-73
2022/12/28 06:16:18;;;;;;;3.13;2.93;;;5.20;99.90;;;;;;5032482;28;20399;-73
2022/12/28 06:18:44;;;;;;;3.23;3.03;;;5.20;99.90;;;;;;5032319;28;20786;-75
2022/12/28 06:21:25;;;;;;;5.53;3.33;;;5.20;99.90;;;;;;5031990;28;20923;-75
2022/12/28 06:23:52;;;;;;;4.53;3.50;;;5.30;99.90;;;;;;5033247;28;20416;-73
2022/12/28 06:26:20;;;;;;;3.33;3.13;;;5.30;99.90;;;;;;5044590;28;20484;-74
2022/12/28 06:28:47;;;;;;;4.33;3.60;;;5.30;99.90;;;;;;5053110;28;20899;-73
2022/12/28 06:31:21;;;;;;;3.60;3.40;;;5.30;99.90;;;;;;5050622;28;20431;-75
2022/12/28 06:33:48;;;;;;;3.70;3.40;;;5.30;99.90;;;;;;5035448;28;20433;-75
2022/12/28 06:36:17;;;;;;;4.20;3.70;;;5.40;99.90;;;;;;5031775;28;20748;-73
2022/12/28 06:38:43;;;;;;;3.83;3.53;;;5.40;99.90;;;;;;5033696;28;20493;-73
2022/12/28 06:41:11;;;;;;;4.40;4.17;;;5.40;99.90;;;;;;5034810;28;20828;-73
2022/12/28 06:43:38;;;;;;;4.10;3.80;;;5.40;99.90;;;;;;5037415;28;20599;-72
2022/12/28 06:46:04;;;;;;;4.80;4.27;;;5.40;99.90;;;;;;5037878;28;21030;-73
2022/12/28 06:48:31;;;;;;;5.17;3.90;;;5.50;99.90;;;;;;5032285;28;20408;-74
2022/12/28 06:50:59;;;;;;;5.00;3.00;;;5.50;99.90;;;;;;5051893;28;20762;-74
2022/12/28 06:53:28;;;;;;;3.13;2.93;;;5.50;99.90;;;;;;5043584;28;20407;-75
2022/12/28 06:56:07;;;;;;;3.37;3.17;;;5.60;99.90;;;;;;5031717;28;20468;-74
2022/12/28 06:58:33;;;;;;;3.00;2.80;;;5.50;99.90;;;;;;5031741;28;20404;-74
2022/12/28 07:01:07;;;;;;;2.83;2.70;;;5.60;99.90;;;;;;5035025;28;20419;-73
2022/12/28 07:03:33;;;;;;;2.33;2.20;;;5.60;99.90;;;;;;5038579;28;20479;-75
2022/12/28 07:06:00;;;;;;;3.60;3.13;;;5.60;99.90;;;;;;5032597;28;20465;-74
2022/12/28 07:08:27;;;;;;;3.27;3.03;;;5.60;99.90;;;;;;5032902;28;20510;-75
2022/12/28 07:10:52;;;;;;;3.23;2.97;;;5.60;99.90;;;;;;5032271;28;20810;-73
2022/12/28 07:13:18;;;;;;;6.60;3.10;;;5.60;99.90;;;;;;5035542;28;20427;-75
2022/12/28 07:15:43;;;;;;;3.03;2.83;;;5.60;99.90;;;;;;5041027;28;20199;-75
2022/12/28 07:18:09;;;;;;;3.10;2.90;;;5.60;1.00;;;;;;5049097;28;20259;-75
2022/12/28 07:20:35;;;;;;;3.33;3.13;;;5.60;1.00;;;;;;5032709;28;20696;-74
2022/12/28 07:23:00;;;;;;;2.80;2.60;;;5.60;1.00;;;;;;5032375;28;20233;-74
2022/12/28 07:25:26;;;;;;;3.73;3.43;;;5.70;1.00;;;;;;5030886;28;20212;-74
2022/12/28 07:27:52;;;;;;;3.10;2.70;;;5.70;1.00;;;;;;5031309;28;20174;-74
2022/12/28 07:30:18;;;;;;;3.70;3.50;;;5.70;1.00;;;;;;5032732;28;20231;-74
2022/12/28 07:32:43;;;;;;;3.40;2.83;;;5.80;1.00;;;;;;5044288;28;20218;-73
2022/12/28 07:35:12;;;;;;;3.10;2.90;;;5.80;1.00;;;;;;5032007;28;20196;-74
2022/12/28 07:37:38;;;;;;;4.67;4.07;;;5.80;1.00;;;;;;5032555;28;20172;-74
2022/12/28 07:40:04;;;;;;;3.57;3.33;;;5.80;1.00;;;;;;5032052;28;20439;-74
2022/12/28 07:42:31;;;;;;;3.30;3.10;;;5.80;1.00;;;;;;5031575;28;20673;-74
2022/12/28 07:44:56;;;;;;;3.47;3.27;;;5.90;1.00;;;;;;5030950;28;20492;-74
2022/12/28 07:47:22;;;;;;;3.03;2.63;;;5.80;1.00;;;;;;5045206;28;20472;-73
2022/12/28 07:49:48;;;;;;;3.53;3.33;;;5.80;1.00;;;;;;5032145;28;20696;-73
2022/12/28 07:52:13;;;;;;;3.30;3.10;;;5.90;1.00;;;;;;5036223;28;20174;-73
2022/12/28 07:54:39;;;;;;;2.70;2.50;;;5.90;1.00;;;;;;5045572;28;20210;-74
2022/12/28 07:57:04;;;;;;;2.80;2.60;;;5.90;1.00;;;;;;5036074;28;20172;-73
2022/12/28 07:59:30;;;;;;;4.10;3.80;;;6.00;1.00;;;;;;5035214;28;20182;-73
2022/12/28 08:01:56;;;;;;;3.67;3.37;;;5.90;1.00;;;;;;5047830;28;20283;-73
2022/12/28 08:04:22;;;;;;;2.10;1.90;;;5.90;1.00;;;;;;5054625;28;20192;-74
2022/12/28 08:06:47;;;;;;;4.20;3.90;;;6.00;1.00;;;;;;5041457;28;20210;-73
2022/12/28 08:09:14;;;;;;;2.87;2.77;;;5.90;1.00;;;;;;5034590;28;20182;-72
2022/12/28 08:11:42;;;;;;;3.83;3.53;;;6.00;1.00;;;;;;5038866;28;20180;-74
2022/12/28 08:14:09;;;;;;;3.30;3.10;;;6.10;1.00;;;;;;5034311;28;20873;-75
2022/12/28 08:16:37;;;;;;;3.70;3.40;;;6.00;1.00;;;;;;5034940;28;20404;-73
2022/12/28 08:19:04;;;;;;;4.03;3.63;;;6.10;1.00;;;;;;5042069;28;20435;-74
2022/12/28 08:21:32;;;;;;;4.00;3.70;;;6.10;1.00;;;;;;5055135;28;20467;-74
2022/12/28 08:23:58;;;;;;;3.80;3.50;;;6.10;1.00;;;;;;5041045;28;20481;-72
2022/12/28 08:26:36;;;;;;;3.97;3.60;;;6.10;1.00;;;;;;5035211;28;20460;-71
2022/12/28 08:29:05;;;;;;;3.33;3.13;;;6.10;1.00;;;;;;5034366;28;20448;-71
2022/12/28 08:31:36;;;;;;;4.57;4.17;;;6.20;1.00;;;;;;5035164;28;20444;-75
2022/12/28 08:34:04;;;;;;;8.90;3.03;;;6.20;1.00;;;;;;5034934;28;20429;-75
2022/12/28 08:36:30;;;;;;;4.50;4.10;;;6.20;1.00;;;;;;5034688;28;20405;-74
2022/12/28 08:38:58;;;;;;;4.20;3.90;;;6.30;1.00;;;;;;5035025;28;20414;-73
2022/12/28 08:41:26;;;;;;;3.73;3.53;;;6.30;1.00;;;;;;5035072;28;20442;-75
2022/12/28 08:43:52;;;;;;;3.90;3.70;;;6.30;1.00;;;;;;5035104;28;20410;-73
2022/12/28 08:46:24;;;;;;;4.33;4.00;;;6.30;1.00;;;;;;5032869;28;20456;-71
2022/12/28 08:48:51;;;;;;;3.00;2.80;;;6.30;1.00;;;;;;5034867;28;20402;-74
2022/12/28 08:51:25;;;;;;;4.30;3.90;;;6.40;1.00;;;;;;5034982;28;20406;-71
2022/12/28 08:53:51;;;;;;;4.50;4.10;;;6.40;1.00;;;;;;5034967;28;20407;-71
2022/12/28 08:56:23;;;;;;;3.80;2.90;;;6.40;1.00;;;;;;5034260;28;20810;-71
2022/12/28 08:58:49;;;;;;;3.67;3.37;;;6.40;1.00;;;;;;5033537;28;20410;-74
2022/12/28 09:01:20;;;;;;;5.73;2.70;;;6.50;1.00;;;;;;5034616;28;20925;-73
2022/12/28 09:03:48;;;;;;;4.00;3.70;;;6.40;1.00;;;;;;5034705;28;20175;-72
2022/12/28 09:06:19;;;;;;;3.30;3.00;;;6.50;1.00;;;;;;5033996;28;20495;-73
2022/12/28 09:08:49;;;;;;;3.90;3.60;;;6.50;1.00;;;;;;5033498;28;20460;-71
2022/12/28 09:11:15;;;;;;;3.60;3.30;;;6.50;1.00;;;;;;5034599;28;20404;-71
2022/12/28 09:13:41;;;;;;;4.07;3.77;;;6.50;1.00;;;;;;5034509;28;20929;-73
2022/12/28 09:16:13;;;;;;;3.40;3.17;;;6.60;1.00;;;;;;5033805;28;20402;-75
2022/12/28 09:18:41;;;;;;;3.30;3.03;;;6.60;1.00;;;;;;5032956;28;20183;-71
2022/12/28 09:21:12;;;;;;;4.23;3.80;;;6.60;1.00;;;;;;5034375;28;20412;-72
2022/12/28 09:23:38;;;;;;;3.37;3.17;;;6.70;1.00;;;;;;5034365;28;20493;-72
2022/12/28 09:26:08;;;;;;;4.37;3.97;;;6.70;1.00;;;;;;5032188;28;20446;-74
2022/12/28 09:28:34;;;;;;;3.70;3.40;;;6.70;1.00;;;;;;5034216;28;20787;-73
2022/12/28 09:31:04;;;;;;;3.90;3.50;;;6.80;1.00;;;;;;5034201;28;20915;-71
2022/12/28 09:36:15;;;;;;;3.83;3.53;;;6.80;1.00;;;;;;5033425;28;20606;-71
2022/12/28 09:38:42;;;;;;;4.17;3.87;;;6.80;1.00;;;;;;5035897;28;20476;-72
2022/12/28 09:41:21;;;;;;;3.63;3.40;;;6.80;1.00;;;;;;5046649;28;20437;-70
2022/12/28 09:43:50;;;;;;;4.10;3.80;;;6.90;1.00;;;;;;5039549;28;20430;-70
2022/12/28 09:46:21;;;;;;;4.10;3.80;;;6.90;1.00;;;;;;5048395;28;20552;-72
2022/12/28 09:48:53;;;;;;;3.53;3.27;;;6.90;1.00;;;;;;5047399;28;20430;-73
2022/12/28 09:51:22;;;;;;;4.23;3.90;;;6.90;1.00;;;;;;5046778;28;20906;-72
2022/12/28 09:53:48;;;;;;;3.30;3.10;;;7.00;1.00;;;;;;5049383;28;20445;-73
2022/12/28 09:56:23;;;;;;;5.37;4.33;;;7.10;1.00;;;;;;5050225;28;20534;-73
2022/12/28 09:58:50;;;;;;;4.20;3.90;;;7.10;1.00;;;;;;5050655;28;20190;-76
2022/12/28 10:01:18;;;;;;;3.67;3.37;;;7.10;1.00;;;;;;5041951;28;20510;-73
2022/12/28 10:03:46;;;;;;;3.73;3.50;;;7.10;1.00;;;;;;5046823;28;20445;-73
2022/12/28 10:06:27;;;;;;;4.17;3.80;;;7.20;1.00;;;;;;5032596;28;20473;-73
2022/12/28 10:08:55;;;;;;;3.90;3.50;;;7.20;1.00;;;;;;5032307;28;20452;-74
2022/12/28 10:11:42;;;;;;;3.70;3.40;;;7.20;1.00;;;;;;5041726;28;20770;-73
2022/12/28 10:14:24;;;;;;;3.37;3.10;;;7.30;1.00;;;;;;5048272;28;20440;-74
2022/12/28 10:16:50;;;;;;;3.23;3.03;;;7.40;1.00;;;;;;5040331;28;20430;-72
2022/12/28 10:19:19;;;;;;;3.43;3.13;;;7.40;1.00;;;;;;5038647;28;20445;-74
2022/12/28 10:21:47;;;;;;;3.80;3.50;;;7.40;1.00;;;;;;5053402;28;20198;-73
2022/12/28 10:24:13;;;;;;;2.77;2.57;;;7.40;1.00;;;;;;5052860;28;20417;-74
2022/12/28 10:26:41;;;;;;;3.23;3.03;;;7.50;1.00;;;;;;5044414;28;20461;-74
2022/12/28 10:29:17;;;;;;;3.37;3.07;;;7.60;1.00;;;;;;5031993;28;20419;-74
2022/12/28 10:31:42;;;;;;;2.73;2.53;;;7.60;1.00;;;;;;5044145;28;20433;-73
2022/12/28 10:34:19;;;;;;;2.07;1.97;;;7.70;1.00;;;;;;5050369;28;20543;-73
2022/12/28 10:36:46;;;;;;;2.10;2.00;;;7.70;1.00;;;;;;5051222;28;20570;-73
2022/12/28 10:39:27;;;;;;;2.67;2.57;;;7.80;1.00;;;;;;5030760;28;20422;-74
2022/12/28 10:41:54;;;;;;;2.40;2.20;;;7.80;1.00;;;;;;5032211;28;20384;-72
2022/12/28 10:44:29;;;;;;;4.00;2.37;;;7.80;1.00;;;;;;5031522;28;20454;-74
2022/12/28 10:47:14;;;;;;;2.80;2.43;;;7.90;1.00;;;;;;5045305;28;20462;-72
2022/12/28 10:49:48;;;;;;;2.63;2.43;;;7.90;1.00;;;;;;5050886;28;20441;-73
2022/12/28 10:52:14;;;;;;;2.30;2.10;;;7.90;1.00;;;;;;5052550;28;20444;-72
2022/12/28 10:54:40;;;;;;;2.63;2.50;;;7.90;1.00;;;;;;5049047;28;20484;-72
2022/12/28 10:57:33;;;;;;;2.80;2.60;;;7.90;1.00;;;;;;5051474;28;20186;-72
2022/12/28 11:00:19;;;;;;;3.23;2.73;;;7.90;1.00;;;;;;5052798;28;20479;-72
2022/12/28 11:02:45;;;;;;;2.50;2.30;;;8.00;1.00;;;;;;5051902;28;20419;-73
2022/12/28 11:05:20;;;;;;;2.00;1.90;;;8.00;1.00;;;;;;5048769;28;20461;-71
2022/12/28 11:07:47;;;;;;;2.60;2.40;;;8.00;1.00;;;;;;5052621;28;20408;-73
2022/12/28 11:10:14;;;;;;;3.00;2.80;;;8.00;1.00;;;;;;5052459;28;20441;-71
2022/12/28 11:12:44;;;;;;;3.27;3.07;;;8.10;1.00;;;;;;5033065;28;20434;-71
2022/12/28 11:15:14;;;;;;;3.10;2.90;;;8.10;1.00;;;;;;5031347;28;20427;-73
2022/12/28 11:17:40;;;;;;;2.27;2.07;;;8.10;1.00;;;;;;5032784;28;20394;-72
2022/12/28 11:20:19;;;;;;;2.50;2.40;;;8.20;1.00;;;;;;5037295;28;20521;-71
2022/12/28 11:22:46;;;;;;;3.30;3.00;;;8.20;1.00;;;;;;5052589;28;20400;-71
2022/12/28 11:25:20;;;;;;;5.00;2.30;;;8.20;1.00;;;;;;5050499;28;20439;-73
2022/12/28 11:27:47;;;;;;;3.23;2.70;;;8.30;1.00;;;;;;5052943;28;20441;-74
2022/12/28 11:30:18;;;;;;;2.00;1.90;;;8.30;1.00;;;;;;5050023;28;20457;-73
2022/12/28 11:32:55;;;;;;;2.30;2.10;;;8.40;1.00;;;;;;5056309;28;20406;-72
2022/12/28 11:35:30;;;;;;;2.53;2.33;;;8.40;1.00;;;;;;5052501;28;20564;-73
2022/12/28 11:37:59;;;;;;;2.10;1.90;;;8.40;1.00;;;;;;5052592;28;20450;-71
2022/12/28 11:40:43;;;;;;;4.50;2.20;;;8.50;1.00;;;;;;5052016;28;20479;-73
2022/12/28 11:43:27;;;;;;;2.57;2.47;;;8.60;1.00;;;;;;5055260;28;20433;-73
2022/12/28 11:46:01;;;;;;;2.37;2.17;;;8.50;1.00;;;;;;5048142;28;20981;-73
2022/12/28 11:48:41;;;;;;;2.67;2.50;;;8.50;1.00;;;;;;5035609;28;20407;-73
2022/12/28 11:51:25;;;;;;;2.90;2.60;;;8.60;1.00;;;;;;5036175;28;20402;-73
2022/12/28 11:53:58;;;;;;;2.83;2.63;;;8.60;1.00;;;;;;5035921;28;20465;-72
2022/12/28 11:56:48;;;;;;;2.40;2.30;;;8.60;1.00;;;;;;5035354;28;20410;-74
2022/12/28 11:59:30;;;;;;;2.73;2.43;;;8.60;1.00;;;;;;5035841;28;20417;-73
2022/12/28 12:01:57;;;;;;;2.53;2.37;;;8.60;1.00;;;;;;5035839;28;20410;-74
2022/12/28 12:04:37;;;;;;;2.23;2.03;;;8.60;1.00;;;;;;5033854;28;20972;-74
2022/12/28 12:07:03;;;;;;;2.33;2.23;;;8.70;1.00;;;;;;5035328;28;20470;-73
2022/12/28 12:09:37;;;;;;;2.20;2.10;;;8.70;1.00;;;;;;5034595;28;20907;-73
2022/12/28 12:12:28;;;;;;;4.00;2.77;;;8.70;1.00;;;;;;5035667;28;20165;-72
2022/12/28 12:15:14;;;;;;;3.10;2.80;;;8.60;1.00;;;;;;5034909;28;20983;-73
2022/12/28 12:17:42;;;;;;;3.40;3.10;;;8.70;1.00;;;;;;5034492;28;20414;-74
2022/12/28 12:20:20;;;;;;;2.77;2.57;;;8.70;1.00;;;;;;5035532;28;20971;-73
2022/12/28 12:22:55;;;;;;;4.30;3.90;;;8.70;1.00;;;;;;5035605;28;20754;-73
2022/12/28 12:25:36;;;;;;;6.83;3.57;;;8.70;1.00;;;;;;5034058;28;20524;-73
2022/12/28 12:28:12;;;;;;;4.90;3.10;;;8.80;1.00;;;;;;5035444;28;20410;-73
2022/12/28 12:30:40;;;;;;;4.57;3.50;;;8.80;1.00;;;;;;5035413;28;20759;-72
2022/12/28 12:33:14;;;;;;;4.47;3.33;;;8.80;1.00;;;;;;5034076;28;20422;-73
2022/12/28 12:36:01;;;;;;;2.97;2.67;;;8.70;1.00;;;;;;5034675;28;20429;-73
2022/12/28 12:39:02;;;;;;;3.90;3.50;;;8.70;1.00;;;;;;5033544;28;20418;-73
2022/12/28 12:41:35;;;;;;;3.23;3.00;;;8.80;1.00;;;;;;5035166;28;20904;-72
2022/12/28 12:44:07;;;;;;;3.93;3.17;;;8.80;1.00;;;;;;5034275;28;20440;-74
2022/12/28 12:46:53;;;;;;;2.90;2.70;;;8.80;1.00;;;;;;5033202;28;20498;-72
2022/12/28 12:49:30;;;;;;;3.17;2.80;;;8.70;1.00;;;;;;5043826;28;20410;-71
2022/12/28 12:51:55;;;;;;;3.80;3.00;;;8.80;1.00;;;;;;5034995;28;20419;-72
2022/12/28 12:54:40;;;;;;;6.03;2.67;;;8.80;1.00;;;;;;5032869;28;20436;-72
2022/12/28 12:57:33;;;;;;;1.97;1.87;;;8.80;1.00;;;;;;5039777;28;20195;-72
2022/12/28 13:00:19;;;;;;;1.90;1.80;;;8.90;1.00;;;;;;5038254;28;20431;-71
2022/12/28 13:02:54;;;;;;;3.27;2.10;;;8.90;1.00;;;;;;5034463;28;20383;-73
2022/12/28 13:05:23;;;;;;;2.10;1.90;;;8.80;1.00;;;;;;5033770;28;20425;-72
2022/12/28 13:07:51;;;;;;;1.93;1.73;;;8.80;1.00;;;;;;5034754;28;20476;-71
2022/12/28 13:10:39;;;;;;;4.77;1.80;;;8.80;1.00;;;;;;5034686;28;20482;-72
2022/12/28 13:13:06;;;;;;;1.83;1.60;;;8.80;1.00;;;;;;5034641;28;20941;-72
2022/12/28 13:15:31;;;;;;;1.50;1.40;;;8.80;1.00;;;;;;5033863;28;20426;-71
2022/12/28 13:18:06;;;;;;;2.50;1.70;;;8.70;1.00;;;;;;5033513;28;20517;-72
2022/12/28 13:20:32;;;;;;;3.97;2.10;;;8.70;1.00;;;;;;5034038;28;20174;-71
2022/12/28 13:22:58;;;;;;;3.73;1.70;;;8.70;1.00;;;;;;5034399;28;20467;-71
2022/12/28 13:25:32;;;;;;;1.40;1.30;;;8.70;1.00;;;;;;5033756;28;20534;-71
2022/12/28 13:28:00;;;;;;;2.07;1.60;;;8.70;1.00;;;;;;5033007;28;20310;-71
2022/12/28 13:30:27;;;;;;;1.70;1.60;;;8.70;1.00;;;;;;5034223;28;20393;-72
2022/12/28 13:32:58;;;;;;;1.70;1.60;;;8.70;1.00;;;;;;5034170;28;20410;-70
2022/12/28 13:35:29;;;;;;;2.07;1.63;;;8.70;1.00;;;;;;5032246;28;20442;-71
2022/12/28 13:38:13;;;;;;;2.87;1.80;;;8.70;1.00;;;;;;5033892;28;20414;-71
2022/12/28 13:40:40;;;;;;;1.67;1.57;;;8.70;1.00;;;;;;5033993;28;20443;-72
2022/12/28 13:43:24;;;;;;;1.57;1.47;;;8.70;1.00;;;;;;5033986;28;20892;-71
2022/12/28 13:45:57;;;;;;;2.23;1.30;;;8.70;1.00;;;;;;5033142;28;20441;-71